sensor_id;sensor_type;location;lat;lon;timestamp;P1;durP1;ratioP1;P2;durP2;ratioP2
84163;SDS011;74288;46.872;7.802;2024-03-08T00:01:50;8.48;;;2.90;;
84163;SDS011;74288;46.872;7.802;2024-03-08T00:04:27;6.93;;;2.47;;
84163;SDS011;74288;46.872;7.802;2024-03-08T00:06:53;6.03;;;2.20;;
84163;SDS011;74288;46.872;7.802;2024-03-08T00:09:19;7.20;;;2.53;;
84163;SDS011;74288;46.872;7.802;2024-03-08T00:11:46;7.70;;;2.67;;
84163;SDS011;74288;46.872;7.802;2024-03-08T00:14:15;7.90;;;2.75;;
84163;SDS011;74288;46.872;7.802;2024-03-08T00:16:41;9.43;;;3.25;;
84163;SDS011;74288;46.872;7.802;2024-03-08T00:19:08;11.77;;;3.43;;
84163;SDS011;74288;46.872;7.802;2024-03-08T00:21:34;10.43;;;3.05;;
84163;SDS011;74288;46.872;7.802;2024-03-08T00:24:00;7.50;;;2.55;;
84163;SDS011;74288;46.872;7.802;2024-03-08T00:26:27;7.47;;;2.53;;
84163;SDS011;74288;46.872;7.802;2024-03-08T00:28:55;8.52;;;3.05;;
84163;SDS011;74288;46.872;7.802;2024-03-08T00:31:21;6.50;;;2.30;;
84163;SDS011;74288;46.872;7.802;2024-03-08T00:36:39;6.32;;;2.30;;
84163;SDS011;74288;46.872;7.802;2024-03-08T00:39:15;8.00;;;2.83;;
84163;SDS011;74288;46.872;7.802;2024-03-08T00:41:41;6.68;;;1.98;;
84163;SDS011;74288;46.872;7.802;2024-03-08T00:44:09;5.57;;;1.93;;
84163;SDS011;74288;46.872;7.802;2024-03-08T00:46:35;6.45;;;2.15;;
84163;SDS011;74288;46.872;7.802;2024-03-08T00:49:01;6.80;;;2.20;;
84163;SDS011;74288;46.872;7.802;2024-03-08T00:51:27;8.15;;;2.30;;
84163;SDS011;74288;46.872;7.802;2024-03-08T00:53:54;7.55;;;2.67;;
84163;SDS011;74288;46.872;7.802;2024-03-08T00:56:20;7.17;;;2.63;;
84163;SDS011;74288;46.872;7.802;2024-03-08T00:58:46;7.47;;;2.67;;
84163;SDS011;74288;46.872;7.802;2024-03-08T01:01:15;12.32;;;3.00;;
84163;SDS011;74288;46.872;7.802;2024-03-08T01:03:44;6.85;;;2.28;;
84163;SDS011;74288;46.872;7.802;2024-03-08T01:06:10;6.70;;;2.30;;
84163;SDS011;74288;46.872;7.802;2024-03-08T01:08:36;6.30;;;2.30;;
84163;SDS011;74288;46.872;7.802;2024-03-08T01:11:07;5.70;;;2.03;;
84163;SDS011;74288;46.872;7.802;2024-03-08T01:13:34;5.65;;;1.83;;
84163;SDS011;74288;46.872;7.802;2024-03-08T01:16:01;5.30;;;2.00;;
84163;SDS011;74288;46.872;7.802;2024-03-08T01:18:28;6.37;;;2.20;;
84163;SDS011;74288;46.872;7.802;2024-03-08T01:20:55;5.13;;;1.85;;
84163;SDS011;74288;46.872;7.802;2024-03-08T01:23:21;4.97;;;1.95;;
84163;SDS011;74288;46.872;7.802;2024-03-08T01:25:47;4.78;;;1.52;;
84163;SDS011;74288;46.872;7.802;2024-03-08T01:28:17;5.00;;;1.60;;
84163;SDS011;74288;46.872;7.802;2024-03-08T01:30:43;5.00;;;1.87;;
84163;SDS011;74288;46.872;7.802;2024-03-08T01:33:10;5.25;;;1.95;;
84163;SDS011;74288;46.872;7.802;2024-03-08T01:35:36;6.35;;;2.28;;
84163;SDS011;74288;46.872;7.802;2024-03-08T01:38:02;7.15;;;2.38;;
84163;SDS011;74288;46.872;7.802;2024-03-08T01:40:30;7.03;;;2.30;;
84163;SDS011;74288;46.872;7.802;2024-03-08T01:42:56;6.60;;;2.33;;
84163;SDS011;74288;46.872;7.802;2024-03-08T01:45:21;5.70;;;1.90;;
84163;SDS011;74288;46.872;7.802;2024-03-08T01:47:47;6.30;;;2.20;;
84163;SDS011;74288;46.872;7.802;2024-03-08T01:50:13;5.13;;;1.57;;
84163;SDS011;74288;46.872;7.802;2024-03-08T01:52:41;5.22;;;1.90;;
84163;SDS011;74288;46.872;7.802;2024-03-08T01:55:07;5.47;;;2.00;;
84163;SDS011;74288;46.872;7.802;2024-03-08T01:57:34;5.90;;;1.90;;
84163;SDS011;74288;46.872;7.802;2024-03-08T02:00:00;5.20;;;1.70;;
84163;SDS011;74288;46.872;7.802;2024-03-08T02:02:31;5.73;;;1.80;;
84163;SDS011;74288;46.872;7.802;2024-03-08T02:04:57;5.18;;;1.98;;
84163;SDS011;74288;46.872;7.802;2024-03-08T02:07:23;6.60;;;2.30;;
84163;SDS011;74288;46.872;7.802;2024-03-08T02:09:52;5.28;;;1.90;;
84163;SDS011;74288;46.872;7.802;2024-03-08T02:12:18;9.05;;;3.35;;
84163;SDS011;74288;46.872;7.802;2024-03-08T02:14:57;7.37;;;2.60;;
84163;SDS011;74288;46.872;7.802;2024-03-08T02:17:33;6.25;;;2.10;;
84163;SDS011;74288;46.872;7.802;2024-03-08T02:19:59;3.80;;;1.30;;
84163;SDS011;74288;46.872;7.802;2024-03-08T02:22:26;4.95;;;1.70;;
84163;SDS011;74288;46.872;7.802;2024-03-08T02:24:53;4.33;;;1.30;;
84163;SDS011;74288;46.872;7.802;2024-03-08T02:27:23;4.00;;;1.23;;
84163;SDS011;74288;46.872;7.802;2024-03-08T02:29:50;5.15;;;1.40;;
84163;SDS011;74288;46.872;7.802;2024-03-08T02:32:16;5.07;;;1.35;;
84163;SDS011;74288;46.872;7.802;2024-03-08T02:34:43;3.72;;;1.20;;
84163;SDS011;74288;46.872;7.802;2024-03-08T02:37:09;4.60;;;1.30;;
84163;SDS011;74288;46.872;7.802;2024-03-08T02:39:35;4.68;;;1.77;;
84163;SDS011;74288;46.872;7.802;2024-03-08T02:42:01;4.32;;;1.50;;
84163;SDS011;74288;46.872;7.802;2024-03-08T02:44:27;5.10;;;1.90;;
84163;SDS011;74288;46.872;7.802;2024-03-08T02:46:53;5.27;;;1.90;;
84163;SDS011;74288;46.872;7.802;2024-03-08T02:49:20;4.82;;;1.65;;
84163;SDS011;74288;46.872;7.802;2024-03-08T02:51:46;5.78;;;1.73;;
84163;SDS011;74288;46.872;7.802;2024-03-08T02:54:12;5.63;;;1.77;;
84163;SDS011;74288;46.872;7.802;2024-03-08T02:56:38;4.35;;;1.50;;
84163;SDS011;74288;46.872;7.802;2024-03-08T02:59:04;4.93;;;1.50;;
84163;SDS011;74288;46.872;7.802;2024-03-08T03:01:30;4.07;;;1.35;;
84163;SDS011;74288;46.872;7.802;2024-03-08T03:03:57;3.72;;;1.40;;
84163;SDS011;74288;46.872;7.802;2024-03-08T03:06:23;4.15;;;1.48;;
84163;SDS011;74288;46.872;7.802;2024-03-08T03:08:49;4.22;;;1.40;;
84163;SDS011;74288;46.872;7.802;2024-03-08T03:11:16;3.57;;;1.10;;
84163;SDS011;74288;46.872;7.802;2024-03-08T03:13:42;4.80;;;1.45;;
84163;SDS011;74288;46.872;7.802;2024-03-08T03:16:16;3.97;;;1.30;;
84163;SDS011;74288;46.872;7.802;2024-03-08T03:18:43;4.72;;;1.52;;
84163;SDS011;74288;46.872;7.802;2024-03-08T03:21:10;3.70;;;1.40;;
84163;SDS011;74288;46.872;7.802;2024-03-08T03:23:37;4.07;;;1.30;;
84163;SDS011;74288;46.872;7.802;2024-03-08T03:26:04;4.53;;;1.48;;
84163;SDS011;74288;46.872;7.802;2024-03-08T03:28:32;3.72;;;1.40;;
84163;SDS011;74288;46.872;7.802;2024-03-08T03:30:58;4.15;;;1.45;;
84163;SDS011;74288;46.872;7.802;2024-03-08T03:33:25;4.22;;;1.40;;
84163;SDS011;74288;46.872;7.802;2024-03-08T03:35:51;3.97;;;1.30;;
84163;SDS011;74288;46.872;7.802;2024-03-08T03:38:17;4.05;;;1.20;;
84163;SDS011;74288;46.872;7.802;2024-03-08T03:40:44;4.88;;;1.42;;
84163;SDS011;74288;46.872;7.802;2024-03-08T03:43:11;3.33;;;1.10;;
84163;SDS011;74288;46.872;7.802;2024-03-08T03:45:38;3.83;;;1.23;;
84163;SDS011;74288;46.872;7.802;2024-03-08T03:48:06;4.03;;;1.10;;
84163;SDS011;74288;46.872;7.802;2024-03-08T03:50:36;3.50;;;1.20;;
84163;SDS011;74288;46.872;7.802;2024-03-08T03:53:02;3.03;;;1.00;;
84163;SDS011;74288;46.872;7.802;2024-03-08T03:55:28;3.92;;;1.10;;
84163;SDS011;74288;46.872;7.802;2024-03-08T03:57:54;11.90;;;3.63;;
84163;SDS011;74288;46.872;7.802;2024-03-08T04:00:20;8.27;;;2.20;;
84163;SDS011;74288;46.872;7.802;2024-03-08T04:02:46;4.22;;;1.40;;
84163;SDS011;74288;46.872;7.802;2024-03-08T04:05:12;4.28;;;1.30;;
84163;SDS011;74288;46.872;7.802;2024-03-08T04:07:38;3.22;;;1.15;;
84163;SDS011;74288;46.872;7.802;2024-03-08T04:10:05;4.87;;;1.40;;
84163;SDS011;74288;46.872;7.802;2024-03-08T04:12:34;4.93;;;1.30;;
84163;SDS011;74288;46.872;7.802;2024-03-08T04:15:01;3.60;;;1.20;;
84163;SDS011;74288;46.872;7.802;2024-03-08T04:17:27;4.22;;;1.20;;
84163;SDS011;74288;46.872;7.802;2024-03-08T04:19:53;4.57;;;1.35;;
84163;SDS011;74288;46.872;7.802;2024-03-08T04:22:19;4.03;;;1.20;;
84163;SDS011;74288;46.872;7.802;2024-03-08T04:24:45;7.43;;;1.13;;
84163;SDS011;74288;46.872;7.802;2024-03-08T04:27:12;2.63;;;0.80;;
84163;SDS011;74288;46.872;7.802;2024-03-08T04:29:39;2.47;;;0.70;;
84163;SDS011;74288;46.872;7.802;2024-03-08T04:32:05;5.25;;;1.15;;
84163;SDS011;74288;46.872;7.802;2024-03-08T04:34:34;4.07;;;1.37;;
84163;SDS011;74288;46.872;7.802;2024-03-08T04:37:01;4.88;;;1.50;;
84163;SDS011;74288;46.872;7.802;2024-03-08T04:39:42;5.78;;;1.65;;
84163;SDS011;74288;46.872;7.802;2024-03-08T04:42:11;6.07;;;1.50;;
84163;SDS011;74288;46.872;7.802;2024-03-08T04:44:42;5.68;;;1.60;;
84163;SDS011;74288;46.872;7.802;2024-03-08T04:47:08;6.60;;;1.50;;
84163;SDS011;74288;46.872;7.802;2024-03-08T04:49:36;7.15;;;1.98;;
84163;SDS011;74288;46.872;7.802;2024-03-08T04:52:02;5.68;;;1.40;;
84163;SDS011;74288;46.872;7.802;2024-03-08T04:54:29;6.03;;;1.65;;
84163;SDS011;74288;46.872;7.802;2024-03-08T04:56:55;4.13;;;1.42;;
84163;SDS011;74288;46.872;7.802;2024-03-08T04:59:21;4.60;;;1.27;;
84163;SDS011;74288;46.872;7.802;2024-03-08T05:01:47;4.55;;;1.50;;
84163;SDS011;74288;46.872;7.802;2024-03-08T05:04:13;4.93;;;1.38;;
84163;SDS011;74288;46.872;7.802;2024-03-08T05:06:40;4.78;;;1.23;;
84163;SDS011;74288;46.872;7.802;2024-03-08T05:09:06;6.35;;;1.27;;
84163;SDS011;74288;46.872;7.802;2024-03-08T05:11:44;19.93;;;4.17;;
84163;SDS011;74288;46.872;7.802;2024-03-08T05:14:10;19.02;;;4.68;;
84163;SDS011;74288;46.872;7.802;2024-03-08T05:16:41;32.30;;;6.88;;
84163;SDS011;74288;46.872;7.802;2024-03-08T05:19:07;27.45;;;5.53;;
84163;SDS011;74288;46.872;7.802;2024-03-08T05:21:33;12.07;;;3.78;;
84163;SDS011;74288;46.872;7.802;2024-03-08T05:23:59;9.43;;;2.57;;
84163;SDS011;74288;46.872;7.802;2024-03-08T05:26:25;8.00;;;2.00;;
84163;SDS011;74288;46.872;7.802;2024-03-08T05:28:51;10.27;;;1.80;;
84163;SDS011;74288;46.872;7.802;2024-03-08T05:31:20;17.98;;;4.03;;
84163;SDS011;74288;46.872;7.802;2024-03-08T05:33:49;16.17;;;4.18;;
84163;SDS011;74288;46.872;7.802;2024-03-08T05:36:16;13.93;;;3.42;;
84163;SDS011;74288;46.872;7.802;2024-03-08T05:38:42;9.82;;;2.72;;
84163;SDS011;74288;46.872;7.802;2024-03-08T05:41:09;7.35;;;2.28;;
84163;SDS011;74288;46.872;7.802;2024-03-08T05:43:36;6.23;;;2.00;;
84163;SDS011;74288;46.872;7.802;2024-03-08T05:46:02;9.20;;;2.00;;
84163;SDS011;74288;46.872;7.802;2024-03-08T05:48:29;9.40;;;2.10;;
84163;SDS011;74288;46.872;7.802;2024-03-08T05:50:57;7.97;;;1.80;;
84163;SDS011;74288;46.872;7.802;2024-03-08T05:53:23;5.72;;;1.80;;
84163;SDS011;74288;46.872;7.802;2024-03-08T05:55:49;6.47;;;2.00;;
84163;SDS011;74288;46.872;7.802;2024-03-08T05:58:15;6.28;;;2.20;;
84163;SDS011;74288;46.872;7.802;2024-03-08T06:00:41;5.60;;;1.67;;
84163;SDS011;74288;46.872;7.802;2024-03-08T06:03:07;8.68;;;2.33;;
84163;SDS011;74288;46.872;7.802;2024-03-08T06:05:33;6.53;;;1.98;;
84163;SDS011;74288;46.872;7.802;2024-03-08T06:07:59;7.90;;;2.75;;
84163;SDS011;74288;46.872;7.802;2024-03-08T06:10:25;8.30;;;2.67;;
84163;SDS011;74288;46.872;7.802;2024-03-08T06:12:51;7.10;;;2.20;;
84163;SDS011;74288;46.872;7.802;2024-03-08T06:15:17;8.18;;;2.67;;
84163;SDS011;74288;46.872;7.802;2024-03-08T06:17:45;14.63;;;5.65;;
84163;SDS011;74288;46.872;7.802;2024-03-08T06:20:11;13.95;;;5.63;;
84163;SDS011;74288;46.872;7.802;2024-03-08T06:22:38;11.23;;;4.38;;
84163;SDS011;74288;46.872;7.802;2024-03-08T06:25:10;8.43;;;3.47;;
84163;SDS011;74288;46.872;7.802;2024-03-08T06:27:39;8.80;;;3.20;;
84163;SDS011;74288;46.872;7.802;2024-03-08T06:30:05;6.72;;;2.90;;
84163;SDS011;74288;46.872;7.802;2024-03-08T06:32:31;8.48;;;2.83;;
84163;SDS011;74288;46.872;7.802;2024-03-08T06:35:00;7.95;;;2.72;;
84163;SDS011;74288;46.872;7.802;2024-03-08T06:37:26;10.40;;;2.93;;
84163;SDS011;74288;46.872;7.802;2024-03-08T06:39:52;8.25;;;2.75;;
84163;SDS011;74288;46.872;7.802;2024-03-08T06:42:20;8.00;;;2.33;;
84163;SDS011;74288;46.872;7.802;2024-03-08T06:44:46;6.40;;;2.17;;
84163;SDS011;74288;46.872;7.802;2024-03-08T06:47:15;8.70;;;2.35;;
84163;SDS011;74288;46.872;7.802;2024-03-08T06:49:44;8.47;;;2.70;;
84163;SDS011;74288;46.872;7.802;2024-03-08T06:52:10;7.88;;;2.78;;
84163;SDS011;74288;46.872;7.802;2024-03-08T06:54:36;7.32;;;2.53;;
84163;SDS011;74288;46.872;7.802;2024-03-08T06:57:03;7.10;;;2.35;;
84163;SDS011;74288;46.872;7.802;2024-03-08T06:59:30;7.18;;;2.35;;
84163;SDS011;74288;46.872;7.802;2024-03-08T07:01:56;6.47;;;2.40;;
84163;SDS011;74288;46.872;7.802;2024-03-08T07:04:21;7.60;;;2.35;;
84163;SDS011;74288;46.872;7.802;2024-03-08T07:06:51;8.57;;;2.70;;
84163;SDS011;74288;46.872;7.802;2024-03-08T07:09:17;7.18;;;2.40;;
84163;SDS011;74288;46.872;7.802;2024-03-08T07:11:43;6.70;;;2.40;;
84163;SDS011;74288;46.872;7.802;2024-03-08T07:14:09;7.35;;;2.67;;
84163;SDS011;74288;46.872;7.802;2024-03-08T07:16:35;6.68;;;2.38;;
84163;SDS011;74288;46.872;7.802;2024-03-08T07:19:01;8.07;;;2.37;;
84163;SDS011;74288;46.872;7.802;2024-03-08T07:21:28;5.93;;;1.80;;
84163;SDS011;74288;46.872;7.802;2024-03-08T07:23:54;9.10;;;1.70;;
84163;SDS011;74288;46.872;7.802;2024-03-08T07:26:26;6.10;;;1.75;;
84163;SDS011;74288;46.872;7.802;2024-03-08T07:28:52;9.77;;;1.75;;
84163;SDS011;74288;46.872;7.802;2024-03-08T07:31:22;7.83;;;1.97;;
84163;SDS011;74288;46.872;7.802;2024-03-08T07:33:50;8.25;;;2.65;;
84163;SDS011;74288;46.872;7.802;2024-03-08T07:36:18;7.55;;;2.92;;
84163;SDS011;74288;46.872;7.802;2024-03-08T07:38:44;9.50;;;3.30;;
84163;SDS011;74288;46.872;7.802;2024-03-08T07:41:13;16.30;;;6.50;;
84163;SDS011;74288;46.872;7.802;2024-03-08T07:43:39;16.57;;;6.20;;
84163;SDS011;74288;46.872;7.802;2024-03-08T07:46:05;15.00;;;5.60;;
84163;SDS011;74288;46.872;7.802;2024-03-08T07:48:31;11.52;;;4.10;;
84163;SDS011;74288;46.872;7.802;2024-03-08T07:50:57;14.23;;;5.55;;
84163;SDS011;74288;46.872;7.802;2024-03-08T07:53:23;39.75;;;12.90;;
84163;SDS011;74288;46.872;7.802;2024-03-08T07:55:49;74.53;;;21.48;;
84163;SDS011;74288;46.872;7.802;2024-03-08T07:58:15;76.15;;;20.83;;
84163;SDS011;74288;46.872;7.802;2024-03-08T08:00:42;36.53;;;10.70;;
84163;SDS011;74288;46.872;7.802;2024-03-08T08:03:08;28.63;;;8.17;;
84163;SDS011;74288;46.872;7.802;2024-03-08T08:05:34;10.35;;;3.40;;
84163;SDS011;74288;46.872;7.802;2024-03-08T08:08:04;8.05;;;2.88;;
84163;SDS011;74288;46.872;7.802;2024-03-08T08:10:31;15.70;;;6.18;;
84163;SDS011;74288;46.872;7.802;2024-03-08T08:12:57;15.87;;;7.23;;
84163;SDS011;74288;46.872;7.802;2024-03-08T08:15:23;16.50;;;6.80;;
84163;SDS011;74288;46.872;7.802;2024-03-08T08:17:49;14.48;;;6.47;;
84163;SDS011;74288;46.872;7.802;2024-03-08T08:20:18;13.90;;;6.70;;
84163;SDS011;74288;46.872;7.802;2024-03-08T08:22:44;10.73;;;4.85;;
84163;SDS011;74288;46.872;7.802;2024-03-08T08:25:10;9.00;;;2.63;;
84163;SDS011;74288;46.872;7.802;2024-03-08T08:27:38;6.07;;;2.03;;
84163;SDS011;74288;46.872;7.802;2024-03-08T08:30:10;6.47;;;2.53;;
84163;SDS011;74288;46.872;7.802;2024-03-08T08:32:36;7.43;;;2.88;;
84163;SDS011;74288;46.872;7.802;2024-03-08T08:35:02;8.73;;;3.10;;
84163;SDS011;74288;46.872;7.802;2024-03-08T08:37:30;7.57;;;2.63;;
84163;SDS011;74288;46.872;7.802;2024-03-08T08:39:56;7.68;;;2.63;;
84163;SDS011;74288;46.872;7.802;2024-03-08T08:42:22;6.78;;;2.53;;
84163;SDS011;74288;46.872;7.802;2024-03-08T08:44:48;6.05;;;1.92;;
84163;SDS011;74288;46.872;7.802;2024-03-08T08:47:15;4.37;;;1.63;;
84163;SDS011;74288;46.872;7.802;2024-03-08T08:49:45;6.45;;;2.45;;
84163;SDS011;74288;46.872;7.802;2024-03-08T08:52:11;5.40;;;1.90;;
84163;SDS011;74288;46.872;7.802;2024-03-08T08:54:37;5.90;;;2.40;;
84163;SDS011;74288;46.872;7.802;2024-03-08T08:57:03;5.70;;;2.30;;
84163;SDS011;74288;46.872;7.802;2024-03-08T08:59:32;6.60;;;2.70;;
84163;SDS011;74288;46.872;7.802;2024-03-08T09:02:00;7.80;;;3.17;;
84163;SDS011;74288;46.872;7.802;2024-03-08T09:04:26;8.10;;;3.25;;
84163;SDS011;74288;46.872;7.802;2024-03-08T09:06:54;7.68;;;2.42;;
84163;SDS011;74288;46.872;7.802;2024-03-08T09:09:20;6.68;;;2.65;;
84163;SDS011;74288;46.872;7.802;2024-03-08T09:11:47;7.90;;;2.80;;
84163;SDS011;74288;46.872;7.802;2024-03-08T09:14:14;6.22;;;2.80;;
84163;SDS011;74288;46.872;7.802;2024-03-08T09:16:40;6.88;;;2.80;;
84163;SDS011;74288;46.872;7.802;2024-03-08T09:19:06;7.03;;;2.58;;
84163;SDS011;74288;46.872;7.802;2024-03-08T09:21:32;7.87;;;3.27;;
84163;SDS011;74288;46.872;7.802;2024-03-08T09:24:00;11.57;;;3.60;;
84163;SDS011;74288;46.872;7.802;2024-03-08T09:26:26;8.10;;;3.40;;
84163;SDS011;74288;46.872;7.802;2024-03-08T09:28:52;7.53;;;2.80;;
84163;SDS011;74288;46.872;7.802;2024-03-08T09:31:20;8.90;;;2.60;;
84163;SDS011;74288;46.872;7.802;2024-03-08T09:33:46;8.77;;;3.33;;
84163;SDS011;74288;46.872;7.802;2024-03-08T09:36:12;7.97;;;3.20;;
84163;SDS011;74288;46.872;7.802;2024-03-08T09:38:39;7.70;;;3.10;;
84163;SDS011;74288;46.872;7.802;2024-03-08T09:41:05;8.93;;;2.90;;
84163;SDS011;74288;46.872;7.802;2024-03-08T09:43:31;8.40;;;2.80;;
84163;SDS011;74288;46.872;7.802;2024-03-08T09:45:57;8.07;;;3.20;;
84163;SDS011;74288;46.872;7.802;2024-03-08T09:48:24;8.77;;;2.58;;
84163;SDS011;74288;46.872;7.802;2024-03-08T09:50:51;7.93;;;2.65;;
84163;SDS011;74288;46.872;7.802;2024-03-08T09:53:17;7.18;;;2.60;;
84163;SDS011;74288;46.872;7.802;2024-03-08T09:55:43;6.37;;;2.37;;
84163;SDS011;74288;46.872;7.802;2024-03-08T09:58:14;5.82;;;2.17;;
84163;SDS011;74288;46.872;7.802;2024-03-08T10:00:52;5.63;;;2.10;;
84163;SDS011;74288;46.872;7.802;2024-03-08T10:03:21;6.05;;;2.33;;
84163;SDS011;74288;46.872;7.802;2024-03-08T10:05:47;6.70;;;2.30;;
84163;SDS011;74288;46.872;7.802;2024-03-08T10:08:13;5.63;;;2.23;;
84163;SDS011;74288;46.872;7.802;2024-03-08T10:10:39;6.53;;;2.28;;
84163;SDS011;74288;46.872;7.802;2024-03-08T10:13:06;6.68;;;2.30;;
84163;SDS011;74288;46.872;7.802;2024-03-08T10:15:32;7.13;;;2.50;;
84163;SDS011;74288;46.872;7.802;2024-03-08T10:17:58;5.57;;;2.05;;
84163;SDS011;74288;46.872;7.802;2024-03-08T10:20:24;7.70;;;2.33;;
84163;SDS011;74288;46.872;7.802;2024-03-08T10:22:51;7.03;;;2.40;;
84163;SDS011;74288;46.872;7.802;2024-03-08T10:25:18;8.65;;;2.80;;
84163;SDS011;74288;46.872;7.802;2024-03-08T10:27:44;7.53;;;2.90;;
84163;SDS011;74288;46.872;7.802;2024-03-08T10:30:15;6.37;;;2.90;;
84163;SDS011;74288;46.872;7.802;2024-03-08T10:32:44;5.80;;;2.58;;
84163;SDS011;74288;46.872;7.802;2024-03-08T10:35:11;6.90;;;2.92;;
84163;SDS011;74288;46.872;7.802;2024-03-08T10:37:47;7.03;;;2.78;;
84163;SDS011;74288;46.872;7.802;2024-03-08T10:40:15;9.60;;;3.03;;
84163;SDS011;74288;46.872;7.802;2024-03-08T10:42:52;6.73;;;3.07;;
84163;SDS011;74288;46.872;7.802;2024-03-08T10:47:48;7.53;;;3.03;;
84163;SDS011;74288;46.872;7.802;2024-03-08T10:50:18;8.18;;;3.10;;
84163;SDS011;74288;46.872;7.802;2024-03-08T10:52:51;7.60;;;3.23;;
84163;SDS011;74288;46.872;7.802;2024-03-08T10:55:17;7.85;;;3.50;;
84163;SDS011;74288;46.872;7.802;2024-03-08T10:57:45;6.50;;;2.88;;
84163;SDS011;74288;46.872;7.802;2024-03-08T11:00:11;7.25;;;2.97;;
84163;SDS011;74288;46.872;7.802;2024-03-08T11:02:38;9.80;;;3.15;;
84163;SDS011;74288;46.872;7.802;2024-03-08T11:05:04;7.20;;;3.13;;
84163;SDS011;74288;46.872;7.802;2024-03-08T11:07:34;8.32;;;3.33;;
84163;SDS011;74288;46.872;7.802;2024-03-08T11:10:03;7.30;;;3.15;;
84163;SDS011;74288;46.872;7.802;2024-03-08T11:12:36;8.07;;;3.50;;
84163;SDS011;74288;46.872;7.802;2024-03-08T11:15:09;10.07;;;3.45;;
84163;SDS011;74288;46.872;7.802;2024-03-08T11:20:12;7.18;;;3.53;;
84163;SDS011;74288;46.872;7.802;2024-03-08T11:22:41;8.10;;;3.40;;
84163;SDS011;74288;46.872;7.802;2024-03-08T11:25:16;8.30;;;3.63;;
84163;SDS011;74288;46.872;7.802;2024-03-08T11:30:47;9.13;;;4.40;;
84163;SDS011;74288;46.872;7.802;2024-03-08T11:33:29;8.65;;;3.97;;
84163;SDS011;74288;46.872;7.802;2024-03-08T11:36:02;8.48;;;3.70;;
84163;SDS011;74288;46.872;7.802;2024-03-08T11:38:31;8.70;;;4.10;;
84163;SDS011;74288;46.872;7.802;2024-03-08T11:40:58;7.43;;;3.37;;
84163;SDS011;74288;46.872;7.802;2024-03-08T11:43:24;8.23;;;3.60;;
84163;SDS011;74288;46.872;7.802;2024-03-08T11:45:50;7.53;;;3.75;;
84163;SDS011;74288;46.872;7.802;2024-03-08T11:48:18;9.32;;;3.92;;
84163;SDS011;74288;46.872;7.802;2024-03-08T11:50:44;8.93;;;3.95;;
84163;SDS011;74288;46.872;7.802;2024-03-08T11:53:09;8.07;;;4.15;;
84163;SDS011;74288;46.872;7.802;2024-03-08T11:55:37;8.77;;;4.20;;
84163;SDS011;74288;46.872;7.802;2024-03-08T11:58:03;10.50;;;4.05;;
84163;SDS011;74288;46.872;7.802;2024-03-08T12:00:29;8.43;;;3.97;;
84163;SDS011;74288;46.872;7.802;2024-03-08T12:03:03;9.53;;;4.20;;
84163;SDS011;74288;46.872;7.802;2024-03-08T12:05:29;11.82;;;4.75;;
84163;SDS011;74288;46.872;7.802;2024-03-08T12:07:59;11.57;;;4.53;;
84163;SDS011;74288;46.872;7.802;2024-03-08T12:10:25;10.77;;;4.70;;
84163;SDS011;74288;46.872;7.802;2024-03-08T12:12:52;11.73;;;4.43;;
84163;SDS011;74288;46.872;7.802;2024-03-08T12:15:22;9.17;;;4.13;;
84163;SDS011;74288;46.872;7.802;2024-03-08T12:17:49;9.45;;;4.47;;
84163;SDS011;74288;46.872;7.802;2024-03-08T12:22:42;9.52;;;4.28;;
84163;SDS011;74288;46.872;7.802;2024-03-08T12:25:09;9.63;;;4.18;;
84163;SDS011;74288;46.872;7.802;2024-03-08T12:27:37;10.80;;;4.27;;
84163;SDS011;74288;46.872;7.802;2024-03-08T12:32:46;9.38;;;4.55;;
84163;SDS011;74288;46.872;7.802;2024-03-08T12:35:12;8.77;;;4.22;;
84163;SDS011;74288;46.872;7.802;2024-03-08T12:37:38;10.27;;;4.80;;
84163;SDS011;74288;46.872;7.802;2024-03-08T12:40:07;12.00;;;4.80;;
84163;SDS011;74288;46.872;7.802;2024-03-08T12:42:34;10.85;;;4.63;;
84163;SDS011;74288;46.872;7.802;2024-03-08T12:45:00;9.77;;;4.57;;
84163;SDS011;74288;46.872;7.802;2024-03-08T12:47:27;9.55;;;4.68;;
84163;SDS011;74288;46.872;7.802;2024-03-08T12:49:54;10.40;;;4.53;;
84163;SDS011;74288;46.872;7.802;2024-03-08T12:52:20;10.60;;;4.70;;
84163;SDS011;74288;46.872;7.802;2024-03-08T12:54:46;10.90;;;4.75;;
84163;SDS011;74288;46.872;7.802;2024-03-08T12:57:12;15.95;;;4.88;;
84163;SDS011;74288;46.872;7.802;2024-03-08T12:59:38;9.85;;;4.50;;
84163;SDS011;74288;46.872;7.802;2024-03-08T13:02:05;9.75;;;4.47;;
84163;SDS011;74288;46.872;7.802;2024-03-08T13:04:36;10.70;;;5.00;;
84163;SDS011;74288;46.872;7.802;2024-03-08T13:07:02;10.93;;;4.85;;
84163;SDS011;74288;46.872;7.802;2024-03-08T13:09:28;10.10;;;4.70;;
84163;SDS011;74288;46.872;7.802;2024-03-08T13:11:54;9.85;;;4.93;;
84163;SDS011;74288;46.872;7.802;2024-03-08T13:14:20;10.30;;;4.95;;
84163;SDS011;74288;46.872;7.802;2024-03-08T13:16:47;10.33;;;4.50;;
84163;SDS011;74288;46.872;7.802;2024-03-08T13:19:13;11.23;;;5.05;;
84163;SDS011;74288;46.872;7.802;2024-03-08T13:21:39;10.57;;;5.00;;
84163;SDS011;74288;46.872;7.802;2024-03-08T13:24:07;11.73;;;4.72;;
84163;SDS011;74288;46.872;7.802;2024-03-08T13:26:33;10.57;;;5.10;;
84163;SDS011;74288;46.872;7.802;2024-03-08T13:28:59;9.57;;;4.17;;
84163;SDS011;74288;46.872;7.802;2024-03-08T13:31:27;9.93;;;4.57;;
84163;SDS011;74288;46.872;7.802;2024-03-08T13:33:53;12.25;;;4.95;;
84163;SDS011;74288;46.872;7.802;2024-03-08T13:36:29;10.52;;;4.47;;
84163;SDS011;74288;46.872;7.802;2024-03-08T13:39:04;10.95;;;4.55;;
84163;SDS011;74288;46.872;7.802;2024-03-08T13:41:40;10.87;;;5.27;;
84163;SDS011;74288;46.872;7.802;2024-03-08T13:44:06;11.25;;;4.80;;
84163;SDS011;74288;46.872;7.802;2024-03-08T13:46:33;11.18;;;5.03;;
84163;SDS011;74288;46.872;7.802;2024-03-08T13:49:03;11.27;;;5.25;;
84163;SDS011;74288;46.872;7.802;2024-03-08T13:51:34;10.15;;;4.97;;
84163;SDS011;74288;46.872;7.802;2024-03-08T13:54:00;11.23;;;5.47;;
84163;SDS011;74288;46.872;7.802;2024-03-08T13:56:27;10.07;;;4.85;;
84163;SDS011;74288;46.872;7.802;2024-03-08T13:58:56;10.75;;;5.43;;
84163;SDS011;74288;46.872;7.802;2024-03-08T14:01:22;11.75;;;5.32;;
84163;SDS011;74288;46.872;7.802;2024-03-08T14:03:48;11.30;;;5.33;;
84163;SDS011;74288;46.872;7.802;2024-03-08T14:06:14;12.25;;;5.80;;
84163;SDS011;74288;46.872;7.802;2024-03-08T14:08:40;10.57;;;5.07;;
84163;SDS011;74288;46.872;7.802;2024-03-08T14:11:07;11.35;;;5.20;;
84163;SDS011;74288;46.872;7.802;2024-03-08T14:13:42;10.23;;;4.40;;
84163;SDS011;74288;46.872;7.802;2024-03-08T14:16:11;13.90;;;5.70;;
84163;SDS011;74288;46.872;7.802;2024-03-08T14:18:38;11.57;;;5.72;;
84163;SDS011;74288;46.872;7.802;2024-03-08T14:21:04;11.85;;;5.47;;
84163;SDS011;74288;46.872;7.802;2024-03-08T14:23:33;11.75;;;5.30;;
84163;SDS011;74288;46.872;7.802;2024-03-08T14:25:59;12.23;;;5.82;;
84163;SDS011;74288;46.872;7.802;2024-03-08T14:28:25;13.00;;;6.27;;
84163;SDS011;74288;46.872;7.802;2024-03-08T14:30:54;13.18;;;6.47;;
84163;SDS011;74288;46.872;7.802;2024-03-08T14:33:20;11.20;;;5.85;;
84163;SDS011;74288;46.872;7.802;2024-03-08T14:35:46;11.65;;;5.43;;
84163;SDS011;74288;46.872;7.802;2024-03-08T14:38:14;11.48;;;5.65;;
84163;SDS011;74288;46.872;7.802;2024-03-08T14:40:42;10.13;;;4.97;;
84163;SDS011;74288;46.872;7.802;2024-03-08T14:43:12;10.30;;;4.65;;
84163;SDS011;74288;46.872;7.802;2024-03-08T14:45:38;11.15;;;5.40;;
84163;SDS011;74288;46.872;7.802;2024-03-08T14:48:06;12.23;;;5.20;;
84163;SDS011;74288;46.872;7.802;2024-03-08T14:50:32;9.75;;;5.28;;
84163;SDS011;74288;46.872;7.802;2024-03-08T14:52:58;10.70;;;5.07;;
84163;SDS011;74288;46.872;7.802;2024-03-08T14:55:25;10.60;;;4.70;;
84163;SDS011;74288;46.872;7.802;2024-03-08T14:57:51;11.05;;;5.38;;
84163;SDS011;74288;46.872;7.802;2024-03-08T15:00:19;9.70;;;4.93;;